Terminal Aerodrome Forecast
Issued by NWS Tampa Bay Area, FL

Home | Current Version | Previous Version | Text Only | Print | Product List | Glossary On
Versions: 1 2 3 4 5 6 7 8 9 10 11 12
000
FTUS42 KTBW 021735
TAFSRQ
TAF
KSRQ 021735Z 0218/0318 25008KT P6SM VCTS SCT040CB SCT150
     FM022200 29008KT P6SM VCTS SCT045CB BKN150
     FM030200 VRB04KT P6SM FEW040 BKN250
     FM031500 22007KT P6SM SCT030 SCT150=

USA.gov is the U.S. government's official web portal to all federal, state and local government web resources and services.